Time;durP1;ratioP1;P1;durP2;ratioP2;P2;SDS_P1;SDS_P2;PMS_P1;PMS_P2;Temp;Humidity;BMP_temperature;BMP_pressure;BME280_temperature;BME280_humidity;BME280_pressure;Samples;Min_cycle;Max_cycle;Signal;HPM_P1;HPM_P2
2023/12/15 00:01:14;;;;;;;0.90;0.90;;;;;;;3.67;91.63;99606.75;5049235;28;20222;-76
2023/12/15 00:03:39;;;;;;;0.90;0.90;;;;;;;3.57;92.08;99613.09;5031384;28;20029;-76
2023/12/15 00:06:05;;;;;;;0.90;0.90;;;;;;;3.59;91.78;99607.91;5037852;28;20685;-76
2023/12/15 00:08:30;;;;;;;0.90;0.90;;;;;;;3.58;91.60;99612.28;5031643;28;20543;-76
2023/12/15 00:10:56;;;;;;;0.90;0.90;;;;;;;3.68;91.31;99607.66;5033743;28;20386;-78
2023/12/15 00:13:21;;;;;;;0.90;0.90;;;;;;;3.65;91.31;99615.38;5031011;28;20041;-79
2023/12/15 00:15:47;;;;;;;1.00;1.00;;;;;;;3.61;91.52;99627.44;5030162;28;20803;-76
2023/12/15 00:18:12;;;;;;;0.90;0.90;;;;;;;3.62;91.39;99631.00;5031385;28;20123;-76
2023/12/15 00:20:38;;;;;;;0.95;0.95;;;;;;;3.58;91.37;99632.47;5031494;28;20156;-77
2023/12/15 00:23:03;;;;;;;1.00;1.00;;;;;;;3.66;91.65;99622.47;5028745;28;20064;-77
2023/12/15 00:25:29;;;;;;;1.00;1.00;;;;;;;3.61;91.50;99635.34;5031103;28;20086;-76
2023/12/15 00:27:54;;;;;;;1.00;1.00;;;;;;;3.57;91.74;99628.03;5038038;28;20111;-76
2023/12/15 00:30:19;;;;;;;1.00;1.00;;;;;;;3.66;91.78;99640.94;5032327;28;20055;-76
2023/12/15 00:32:45;;;;;;;0.90;0.90;;;;;;;3.66;91.82;99648.88;5034553;28;20033;-76
2023/12/15 00:35:10;;;;;;;0.90;0.90;;;;;;;3.76;91.27;99646.97;5031741;28;20363;-76
2023/12/15 00:37:36;;;;;;;0.90;0.90;;;;;;;3.73;91.31;99659.94;5033092;28;20748;-77
2023/12/15 00:40:02;;;;;;;1.00;1.00;;;;;;;3.76;91.13;99660.19;5036286;28;20133;-77
2023/12/15 00:42:27;;;;;;;0.90;0.90;;;;;;;3.74;91.17;99663.53;5034031;28;20108;-77
2023/12/15 00:44:54;;;;;;;1.00;1.00;;;;;;;3.66;91.27;99665.63;5037357;28;20159;-78
2023/12/15 00:47:19;;;;;;;1.00;1.00;;;;;;;3.75;91.38;99668.91;5031918;28;20041;-76
2023/12/15 00:49:45;;;;;;;0.90;0.90;;;;;;;3.84;90.73;99673.94;5033116;28;20037;-78
2023/12/15 00:52:10;;;;;;;1.00;1.00;;;;;;;3.84;91.11;99668.66;5033753;28;20038;-76
2023/12/15 00:54:38;;;;;;;0.90;0.90;;;;;;;3.79;90.62;99676.25;5029578;28;20034;-76
2023/12/15 00:57:06;;;;;;;0.93;0.93;;;;;;;3.85;90.40;99687.22;5033620;28;20559;-76
2023/12/15 00:59:32;;;;;;;1.00;1.00;;;;;;;3.82;90.50;99679.06;5030404;28;20049;-76
2023/12/15 01:01:57;;;;;;;0.90;0.90;;;;;;;3.84;90.78;99687.13;5035295;28;20186;-77
2023/12/15 01:04:23;;;;;;;1.00;1.00;;;;;;;3.90;90.41;99694.56;5023105;28;20540;-77
2023/12/15 01:06:48;;;;;;;0.80;0.80;;;;;;;3.88;90.79;99699.75;5034523;28;20120;-77
2023/12/15 01:09:14;;;;;;;1.00;1.00;;;;;;;3.89;90.50;99698.91;5039936;28;20040;-76
2023/12/15 01:11:39;;;;;;;0.93;0.93;;;;;;;3.94;90.52;99699.25;5030621;28;20866;-77
2023/12/15 01:14:04;;;;;;;1.00;1.00;;;;;;;3.83;90.94;99707.34;5031005;28;20037;-77
2023/12/15 01:16:30;;;;;;;0.90;0.90;;;;;;;3.96;90.27;99708.19;5034073;28;20676;-77
2023/12/15 01:18:55;;;;;;;0.90;0.90;;;;;;;3.90;90.07;99713.94;5033236;28;20037;-76
2023/12/15 01:21:21;;;;;;;0.95;0.95;;;;;;;3.84;90.24;99713.53;5031243;28;20105;-76
2023/12/15 01:23:46;;;;;;;1.00;1.00;;;;;;;3.85;90.52;99724.19;5031065;28;20033;-76
2023/12/15 01:26:12;;;;;;;1.00;1.00;;;;;;;3.80;90.38;99720.28;5031691;28;20052;-76
2023/12/15 01:28:37;;;;;;;1.00;1.00;;;;;;;3.85;90.33;99728.53;5031619;28;20064;-76
2023/12/15 01:31:03;;;;;;;1.00;1.00;;;;;;;3.89;90.11;99737.59;5030637;28;20052;-77
2023/12/15 01:33:29;;;;;;;1.00;1.00;;;;;;;3.95;89.23;99736.31;5032657;28;20195;-76
2023/12/15 01:35:55;;;;;;;1.00;1.00;;;;;;;3.89;89.33;99745.53;5030250;28;20092;-76
2023/12/15 01:38:21;;;;;;;1.00;1.00;;;;;;;3.82;89.40;99749.44;5033338;28;20539;-76
2023/12/15 01:40:47;;;;;;;0.90;0.90;;;;;;;3.82;89.93;99760.00;5031353;28;20025;-77
2023/12/15 01:43:12;;;;;;;0.90;0.90;;;;;;;3.88;89.74;99762.16;5031048;28;20044;-77
2023/12/15 01:45:38;;;;;;;0.90;0.90;;;;;;;3.78;90.31;99758.84;5031193;28;20045;-76
2023/12/15 01:48:05;;;;;;;1.00;1.00;;;;;;;3.83;90.15;99768.03;5028718;28;20133;-77
2023/12/15 01:50:30;;;;;;;1.00;1.00;;;;;;;3.98;89.74;99767.31;5029350;28;20034;-76
2023/12/15 01:52:55;;;;;;;0.90;0.90;;;;;;;3.80;89.98;99765.16;5028409;28;20685;-77
2023/12/15 01:55:21;;;;;;;1.00;1.00;;;;;;;3.90;89.89;99772.03;5029450;28;20893;-76
2023/12/15 01:57:46;;;;;;;1.00;1.00;;;;;;;3.94;89.63;99770.53;5030417;28;20124;-77
2023/12/15 02:00:12;;;;;;;0.90;0.90;;;;;;;3.89;89.89;99771.94;5035114;28;20115;-77
2023/12/15 02:02:37;;;;;;;0.90;0.90;;;;;;;3.82;90.32;99770.53;5035930;28;20033;-77
2023/12/15 02:05:04;;;;;;;1.00;1.00;;;;;;;3.90;90.34;99776.41;5030170;28;20041;-77
2023/12/15 02:07:29;;;;;;;1.00;1.00;;;;;;;3.88;89.92;99775.34;5031961;28;20047;-77
2023/12/15 02:09:55;;;;;;;0.90;0.90;;;;;;;3.86;89.63;99777.88;5028352;28;20029;-77
2023/12/15 02:12:21;;;;;;;1.00;1.00;;;;;;;3.83;89.92;99783.88;5021599;28;20060;-76
2023/12/15 02:14:47;;;;;;;1.00;1.00;;;;;;;3.81;89.92;99781.91;5027842;28;20539;-77
2023/12/15 02:17:12;;;;;;;1.00;1.00;;;;;;;3.79;90.20;99775.63;5028594;28;20045;-77
2023/12/15 02:19:38;;;;;;;0.90;0.90;;;;;;;3.90;89.92;99776.41;5029547;28;20491;-77
2023/12/15 02:22:04;;;;;;;1.00;1.00;;;;;;;3.89;89.55;99787.75;5045057;28;20064;-77
2023/12/15 02:24:29;;;;;;;0.93;0.93;;;;;;;3.80;89.99;99781.00;5034184;28;20122;-77
2023/12/15 02:26:56;;;;;;;0.90;0.90;;;;;;;3.81;89.31;99787.19;5029682;28;20175;-77
2023/12/15 02:29:21;;;;;;;1.10;1.10;;;;;;;3.81;89.59;99796.03;5042011;28;20037;-76
2023/12/15 02:31:46;;;;;;;0.90;0.90;;;;;;;3.78;89.50;99795.78;5029098;28;20041;-77
2023/12/15 02:34:12;;;;;;;1.00;1.00;;;;;;;3.90;88.97;99790.50;5026736;28;20025;-77
2023/12/15 02:36:37;;;;;;;1.00;1.00;;;;;;;3.83;89.05;99789.16;5031285;28;20067;-77
2023/12/15 02:39:03;;;;;;;1.00;1.00;;;;;;;3.86;89.17;99788.44;5027281;28;20045;-76
2023/12/15 02:41:32;;;;;;;0.90;0.90;;;;;;;3.82;89.06;99791.66;5029774;28;20036;-77
2023/12/15 02:43:57;;;;;;;1.00;1.00;;;;;;;3.65;89.92;99795.72;5029903;28;20032;-76
2023/12/15 02:46:23;;;;;;;0.90;0.90;;;;;;;3.63;89.90;99804.31;5044658;28;20061;-76
2023/12/15 02:48:48;;;;;;;1.00;1.00;;;;;;;3.64;89.95;99809.75;5029071;28;20044;-77
2023/12/15 02:51:27;;;;;;;0.90;0.90;;;;;;;3.72;89.99;99811.19;5029862;28;20061;-77
2023/12/15 02:53:53;;;;;;;0.93;0.93;;;;;;;3.76;89.72;99818.53;5029138;28;20290;-77
2023/12/15 02:56:19;;;;;;;0.88;0.88;;;;;;;3.94;89.12;99824.25;5029327;28;20374;-76
2023/12/15 02:58:44;;;;;;;1.08;1.08;;;;;;;3.82;89.38;99824.25;5030908;28;20037;-77
2023/12/15 03:01:09;;;;;;;0.90;0.90;;;;;;;3.80;89.33;99832.88;5033017;28;20068;-77
2023/12/15 03:03:38;;;;;;;0.90;0.90;;;;;;;3.74;89.62;99837.72;5032386;28;20041;-76
2023/12/15 03:06:03;;;;;;;0.90;0.90;;;;;;;3.68;90.11;99832.88;5031147;28;20092;-76
2023/12/15 03:08:29;;;;;;;0.90;0.90;;;;;;;3.71;89.85;99838.41;5029423;28;20045;-76
2023/12/15 03:10:57;;;;;;;1.00;1.00;;;;;;;3.78;89.81;99838.03;5045792;28;20091;-76
2023/12/15 03:13:24;;;;;;;1.00;1.00;;;;;;;3.64;89.83;99843.09;5030031;28;20053;-76
2023/12/15 03:15:50;;;;;;;0.93;0.93;;;;;;;3.71;89.52;99838.41;5031133;28;20037;-76
2023/12/15 03:18:16;;;;;;;0.90;0.90;;;;;;;3.70;89.72;99849.75;5030717;28;20903;-77
2023/12/15 03:20:44;;;;;;;0.90;0.90;;;;;;;3.65;90.29;99850.22;5032883;28;20034;-77
2023/12/15 03:23:09;;;;;;;1.00;1.00;;;;;;;3.75;89.97;99860.66;5030975;28;20037;-77
2023/12/15 03:25:35;;;;;;;0.80;0.80;;;;;;;3.81;90.19;99861.09;5030838;28;20414;-76
2023/12/15 03:28:00;;;;;;;1.00;1.00;;;;;;;3.81;89.44;99867.31;5034807;28;20206;-76
2023/12/15 03:30:26;;;;;;;1.00;1.00;;;;;;;3.84;89.60;99867.53;5036870;28;20486;-77
2023/12/15 03:32:51;;;;;;;0.95;0.95;;;;;;;3.89;89.55;99866.97;5031105;28;20577;-76
2023/12/15 03:35:17;;;;;;;0.90;0.90;;;;;;;3.83;89.65;99863.06;5015821;28;20041;-76
2023/12/15 03:37:43;;;;;;;1.00;1.00;;;;;;;3.77;90.28;99864.31;5039030;28;20487;-76
2023/12/15 03:40:09;;;;;;;1.00;1.00;;;;;;;3.68;90.72;99866.28;5033828;28;20483;-76
2023/12/15 03:42:34;;;;;;;1.00;1.00;;;;;;;3.74;90.77;99877.31;5031142;28;20033;-76
2023/12/15 03:44:59;;;;;;;1.00;1.00;;;;;;;3.71;90.65;99877.97;5034171;28;20108;-76
2023/12/15 03:47:25;;;;;;;0.90;0.90;;;;;;;3.65;90.66;99873.97;5034615;28;20043;-76
2023/12/15 03:49:50;;;;;;;0.90;0.90;;;;;;;3.59;91.08;99875.38;5042017;28;20040;-76
2023/12/15 03:52:16;;;;;;;0.90;0.90;;;;;;;3.65;91.44;99888.09;5030147;28;20132;-77
2023/12/15 03:54:41;;;;;;;0.90;0.90;;;;;;;3.64;91.01;99883.63;5038486;28;20048;-76
2023/12/15 03:57:06;;;;;;;0.90;0.90;;;;;;;3.54;91.58;99897.81;5030710;28;20596;-77
2023/12/15 03:59:32;;;;;;;0.95;0.95;;;;;;;3.61;91.36;99896.56;5036908;28;20042;-77
2023/12/15 04:01:57;;;;;;;1.00;1.00;;;;;;;3.63;90.64;99899.31;5033866;28;20113;-77
2023/12/15 04:04:23;;;;;;;0.90;0.90;;;;;;;3.68;90.64;99906.78;5031918;28;20184;-78
2023/12/15 04:06:48;;;;;;;0.90;0.90;;;;;;;3.63;90.59;99907.25;5032359;28;20048;-78
2023/12/15 04:09:13;;;;;;;0.90;0.90;;;;;;;3.56;90.66;99896.22;5030794;28;20036;-77
2023/12/15 04:11:39;;;;;;;1.00;1.00;;;;;;;3.56;90.72;99900.59;5030868;28;20395;-77
2023/12/15 04:14:05;;;;;;;0.90;0.90;;;;;;;3.54;90.89;99900.47;5033205;28;20033;-77
2023/12/15 04:16:31;;;;;;;0.90;0.90;;;;;;;3.53;91.24;99905.63;5033883;28;20430;-78
2023/12/15 04:18:58;;;;;;;0.80;0.80;;;;;;;3.62;90.98;99908.97;5032530;28;20029;-78
2023/12/15 04:21:24;;;;;;;;;;;;;;;3.50;91.21;99911.63;5029466;28;20046;-77
2023/12/15 04:23:50;;;;;;;0.90;0.90;;;;;;;3.46;91.47;99922.72;5031052;28;20290;-78
2023/12/15 04:26:15;;;;;;;1.00;1.00;;;;;;;3.44;91.64;99931.31;5033063;28;20069;-77
2023/12/15 04:28:40;;;;;;;1.00;1.00;;;;;;;3.44;91.90;99933.94;5033985;28;20501;-78
2023/12/15 04:31:06;;;;;;;0.90;0.90;;;;;;;3.52;91.53;99941.66;5030994;28;20049;-78
2023/12/15 04:33:31;;;;;;;1.00;1.00;;;;;;;3.46;91.67;99935.91;5033397;28;20072;-78
2023/12/15 04:35:57;;;;;;;0.90;0.90;;;;;;;3.43;92.10;99937.41;5032257;28;20373;-78
2023/12/15 04:38:22;;;;;;;0.90;0.90;;;;;;;3.44;92.03;99944.50;5031951;28;20037;-78
2023/12/15 04:40:49;;;;;;;0.90;0.90;;;;;;;3.51;92.17;99944.19;5032996;28;20029;-78
2023/12/15 04:43:15;;;;;;;1.00;1.00;;;;;;;3.60;91.83;99940.53;5032549;28;20037;-78
2023/12/15 04:45:40;;;;;;;0.90;0.90;;;;;;;3.68;91.45;99943.72;5031595;28;20386;-78
2023/12/15 04:48:08;;;;;;;0.80;0.80;;;;;;;3.53;91.62;99950.47;5031225;28;20411;-78
2023/12/15 04:50:34;;;;;;;0.90;0.90;;;;;;;3.43;92.26;99958.50;5034663;28;20152;-78
2023/12/15 04:52:59;;;;;;;0.80;0.80;;;;;;;3.43;92.07;99954.13;5029803;28;20760;-78
2023/12/15 04:55:25;;;;;;;0.90;0.90;;;;;;;3.42;92.79;99962.84;5030012;28;20779;-78
2023/12/15 04:57:50;;;;;;;0.90;0.90;;;;;;;3.46;92.29;99961.38;5034942;28;20041;-77
2023/12/15 05:00:16;;;;;;;0.90;0.90;;;;;;;3.37;91.99;99963.31;5034608;28;20082;-78
2023/12/15 05:02:41;;;;;;;0.80;0.80;;;;;;;3.40;92.43;99968.81;5031292;28;20900;-78
2023/12/15 05:05:07;;;;;;;0.82;0.82;;;;;;;3.39;92.65;99965.25;5038697;28;20033;-78
2023/12/15 05:07:33;;;;;;;0.80;0.80;;;;;;;3.41;92.41;99965.41;5033793;28;20207;-78
2023/12/15 05:09:58;;;;;;;0.90;0.90;;;;;;;3.39;92.38;99969.63;5033500;28;20511;-78
2023/12/15 05:12:24;;;;;;;0.80;0.80;;;;;;;3.41;92.81;99968.94;5031200;28;20033;-78
2023/12/15 05:14:49;;;;;;;0.82;0.82;;;;;;;3.42;92.60;99977.78;5030993;28;20036;-78
2023/12/15 05:17:15;;;;;;;0.80;0.80;;;;;;;3.40;92.35;99972.34;5038427;28;20732;-78
2023/12/15 05:19:41;;;;;;;0.90;0.90;;;;;;;3.46;92.74;99982.50;5030339;28;20088;-78
2023/12/15 05:22:07;;;;;;;0.80;0.80;;;;;;;3.50;92.44;99982.84;5035960;28;20033;-78
2023/12/15 05:24:34;;;;;;;0.90;0.90;;;;;;;3.46;92.46;99988.69;5031233;28;20037;-77
2023/12/15 05:27:00;;;;;;;0.80;0.80;;;;;;;3.50;92.66;99995.13;5032481;28;20540;-78
2023/12/15 05:29:25;;;;;;;0.90;0.90;;;;;;;3.48;92.50;99994.06;5039051;28;20042;-78
2023/12/15 05:31:51;;;;;;;0.90;0.90;;;;;;;3.42;92.35;100004.16;5034800;28;20857;-78
2023/12/15 05:34:16;;;;;;;0.88;0.88;;;;;;;3.31;92.59;100004.25;5028746;28;20036;-78
2023/12/15 05:36:41;;;;;;;0.90;0.90;;;;;;;3.48;92.60;100012.53;5031233;28;20029;-78
2023/12/15 05:39:07;;;;;;;0.90;0.90;;;;;;;3.38;92.27;100015.25;5033609;28;20514;-78
2023/12/15 05:41:32;;;;;;;0.85;0.85;;;;;;;3.40;92.67;100019.84;5032366;28;20091;-78
2023/12/15 05:43:58;;;;;;;0.90;0.90;;;;;;;3.48;92.82;100028.38;5032327;28;20046;-78
2023/12/15 05:46:23;;;;;;;0.90;0.90;;;;;;;3.41;92.50;100034.91;5027760;28;20780;-78
2023/12/15 05:48:49;;;;;;;0.80;0.80;;;;;;;3.41;93.11;100037.53;5030893;28;20037;-78
2023/12/15 05:51:14;;;;;;;0.90;0.90;;;;;;;3.53;92.66;100048.09;5046337;28;20030;-78
2023/12/15 05:53:39;;;;;;;0.90;0.90;;;;;;;3.59;92.33;100053.84;5031945;28;20048;-79
2023/12/15 05:56:06;;;;;;;0.90;0.90;;;;;;;3.64;92.06;100060.44;5033025;28;20102;-78
2023/12/15 05:58:31;;;;;;;0.90;0.90;;;;;;;3.57;91.78;100068.66;5032238;28;20140;-77
2023/12/15 06:00:56;;;;;;;0.90;0.90;;;;;;;3.58;91.99;100067.84;5030309;28;20128;-77
2023/12/15 06:03:22;;;;;;;0.90;0.90;;;;;;;3.62;91.50;100077.84;5035458;28;20072;-77
2023/12/15 06:05:47;;;;;;;0.80;0.80;;;;;;;3.47;91.83;100071.38;5030473;28;20040;-78
2023/12/15 06:08:13;;;;;;;0.82;0.82;;;;;;;3.51;91.65;100081.38;5033196;28;20505;-80
2023/12/15 06:10:41;;;;;;;0.90;0.90;;;;;;;3.48;91.98;100082.03;5031178;28;20095;-78
2023/12/15 06:13:06;;;;;;;0.90;0.90;;;;;;;3.40;92.15;100084.88;5031845;28;20371;-78
2023/12/15 06:15:32;;;;;;;0.90;0.90;;;;;;;3.46;92.25;100095.94;5032184;28;20740;-78
2023/12/15 06:17:57;;;;;;;0.90;0.90;;;;;;;3.39;92.37;100096.22;5031207;28;20075;-77
2023/12/15 06:20:22;;;;;;;0.90;0.90;;;;;;;3.43;92.94;100090.41;5030880;28;20120;-77
2023/12/15 06:22:48;;;;;;;0.80;0.80;;;;;;;3.37;92.82;100093.47;5034611;28;20116;-78
2023/12/15 06:25:13;;;;;;;0.90;0.90;;;;;;;3.32;92.93;100097.47;5028018;28;20499;-78
2023/12/15 06:27:39;;;;;;;0.80;0.80;;;;;;;3.36;93.29;100101.28;5033776;28;20049;-78
2023/12/15 06:30:05;;;;;;;0.90;0.90;;;;;;;3.31;92.99;100104.47;5033416;28;20037;-78
2023/12/15 06:32:30;;;;;;;0.90;0.90;;;;;;;3.29;93.21;100107.78;5027845;28;20036;-78
2023/12/15 06:34:55;;;;;;;0.90;0.90;;;;;;;3.31;92.40;100103.56;5032158;28;20063;-77
2023/12/15 06:37:21;;;;;;;1.00;1.00;;;;;;;3.31;92.92;100109.75;5029425;28;20045;-77
2023/12/15 06:39:47;;;;;;;0.85;0.85;;;;;;;3.29;92.96;100113.03;5029712;28;20037;-77
2023/12/15 06:42:15;;;;;;;1.00;1.00;;;;;;;3.29;93.09;100113.97;5027964;28;20036;-77
2023/12/15 06:44:40;;;;;;;0.90;0.90;;;;;;;3.32;92.56;100118.56;5034674;28;20088;-77
2023/12/15 06:47:06;;;;;;;0.90;0.90;;;;;;;3.32;92.72;100124.78;5028703;28;20025;-77
2023/12/15 06:49:31;;;;;;;0.90;0.90;;;;;;;3.36;92.53;100125.03;5030414;28;20037;-77
2023/12/15 06:51:57;;;;;;;0.98;0.98;;;;;;;3.32;92.82;100130.03;5031301;28;20037;-78
2023/12/15 06:54:23;;;;;;;0.90;0.90;;;;;;;3.39;92.62;100139.34;5032127;28;20064;-77
2023/12/15 06:56:48;;;;;;;1.00;1.00;;;;;;;3.45;93.36;100138.91;5029661;28;20128;-79
2023/12/15 06:59:14;;;;;;;0.90;0.90;;;;;;;3.51;92.80;100136.78;5035252;28;20114;-78
2023/12/15 07:01:39;;;;;;;1.00;1.00;;;;;;;3.57;91.86;100150.47;5035556;28;20037;-77
2023/12/15 07:04:05;;;;;;;0.90;0.90;;;;;;;3.73;92.04;100152.56;5032426;28;20612;-78
2023/12/15 07:06:30;;;;;;;0.90;0.90;;;;;;;3.66;91.56;100150.28;5032589;28;20067;-78
2023/12/15 07:08:55;;;;;;;0.80;0.80;;;;;;;3.77;91.69;100159.94;5031353;28;20041;-80
2023/12/15 07:11:21;;;;;;;1.00;1.00;;;;;;;3.70;91.32;100160.28;5037014;28;20041;-79
2023/12/15 07:13:47;;;;;;;0.93;0.93;;;;;;;3.69;91.51;100159.38;5036412;28;20044;-79
2023/12/15 07:16:12;;;;;;;0.80;0.80;;;;;;;3.85;90.97;100167.66;5034464;28;20118;-78
2023/12/15 07:18:38;;;;;;;0.90;0.90;;;;;;;3.82;90.39;100169.16;5030632;28;20245;-79
2023/12/15 07:21:03;;;;;;;0.98;0.98;;;;;;;3.77;89.83;100162.59;5033659;28;20081;-79
2023/12/15 07:23:29;;;;;;;0.90;0.90;;;;;;;3.71;89.76;100162.13;5031113;28;20029;-78
2023/12/15 07:25:54;;;;;;;0.80;0.80;;;;;;;3.67;90.29;100160.94;5034445;28;20080;-79
2023/12/15 07:28:20;;;;;;;0.90;0.90;;;;;;;3.63;90.39;100166.78;5033693;28;20247;-79
2023/12/15 07:30:45;;;;;;;0.90;0.90;;;;;;;3.62;90.70;100178.13;5037434;28;20115;-79
2023/12/15 07:33:11;;;;;;;0.90;0.90;;;;;;;3.71;90.94;100177.94;5035004;28;20388;-78
2023/12/15 07:35:36;;;;;;;0.90;0.90;;;;;;;3.71;91.23;100192.06;5036618;28;20084;-78
2023/12/15 07:38:02;;;;;;;0.90;0.90;;;;;;;3.68;89.46;100181.25;5037226;28;20116;-78
2023/12/15 07:40:27;;;;;;;1.00;1.00;;;;;;;3.70;89.42;100198.16;5033674;28;20033;-78
2023/12/15 07:42:53;;;;;;;0.90;0.90;;;;;;;3.82;89.82;100193.81;5031654;28;20033;-78
2023/12/15 07:45:18;;;;;;;0.80;0.80;;;;;;;3.86;89.68;100200.28;5030305;28;20830;-77
2023/12/15 07:47:44;;;;;;;0.90;0.90;;;;;;;3.85;90.30;100207.28;5027776;28;20049;-77
2023/12/15 07:50:10;;;;;;;1.00;1.00;;;;;;;3.95;90.21;100210.63;5030491;28;20040;-79
2023/12/15 07:52:35;;;;;;;0.90;0.90;;;;;;;3.96;89.41;100207.19;5028846;28;20140;-79
2023/12/15 07:55:00;;;;;;;0.90;0.90;;;;;;;4.03;89.00;100205.16;5031165;28;20064;-78
2023/12/15 07:57:26;;;;;;;0.85;0.85;;;;;;;4.11;88.74;100201.38;5032862;28;20076;-78
2023/12/15 07:59:51;;;;;;;0.90;0.90;;;;;;;4.03;88.58;100209.53;5031415;28;20467;-78
2023/12/15 08:02:19;;;;;;;0.80;0.80;;;;;;;4.03;89.28;100205.16;5032827;28;20075;-78
2023/12/15 08:04:46;;;;;;;0.80;0.80;;;;;;;4.01;88.47;100208.47;5033144;28;20121;-79
2023/12/15 08:07:11;;;;;;;0.80;0.80;;;;;;;4.04;89.08;100211.38;5047016;28;20038;-79
2023/12/15 08:09:37;;;;;;;0.82;0.82;;;;;;;4.11;89.09;100217.22;5032415;28;20626;-78
2023/12/15 08:12:03;;;;;;;0.80;0.80;;;;;;;4.02;89.15;100219.16;5034109;28;20284;-77
2023/12/15 08:14:28;;;;;;;0.85;0.85;;;;;;;4.07;88.78;100225.75;5033185;28;20380;-77
2023/12/15 08:16:54;;;;;;;0.90;0.90;;;;;;;4.15;88.68;100226.31;5037092;28;20041;-78
2023/12/15 08:19:20;;;;;;;0.80;0.80;;;;;;;4.13;88.96;100227.94;5033643;28;20175;-78
2023/12/15 08:21:47;;;;;;;0.90;0.90;;;;;;;4.25;89.26;100227.97;5034615;28;20033;-78
2023/12/15 08:24:13;;;;;;;0.82;0.82;;;;;;;4.28;89.02;100218.56;5031855;28;20033;-78
2023/12/15 08:26:38;;;;;;;0.90;0.90;;;;;;;4.25;88.64;100238.53;5034089;28;20044;-76
2023/12/15 08:29:04;;;;;;;0.80;0.80;;;;;;;4.15;88.51;100231.59;5031963;28;20041;-76
2023/12/15 08:31:29;;;;;;;0.80;0.80;;;;;;;4.27;89.02;100245.78;5031464;28;20049;-77
2023/12/15 08:33:55;;;;;;;0.80;0.80;;;;;;;4.26;89.02;100245.63;5031478;28;20055;-77
2023/12/15 08:36:20;;;;;;;0.85;0.85;;;;;;;4.24;89.13;100249.91;5033742;28;20033;-76
2023/12/15 08:38:46;;;;;;;0.90;0.90;;;;;;;4.16;88.30;100254.56;5030528;28;20677;-76
2023/12/15 08:41:12;;;;;;;0.90;0.90;;;;;;;4.20;88.97;100255.75;5030170;28;20037;-76
2023/12/15 08:43:38;;;;;;;0.80;0.80;;;;;;;4.19;89.54;100254.81;5034268;28;20029;-76
2023/12/15 08:46:06;;;;;;;0.80;0.80;;;;;;;4.30;89.33;100264.50;5030824;28;20041;-76
2023/12/15 08:48:32;;;;;;;0.80;0.80;;;;;;;4.43;89.11;100271.66;5035551;28;20033;-77
2023/12/15 08:50:58;;;;;;;0.90;0.90;;;;;;;4.29;89.20;100277.59;4994814;28;1064938;-77
2023/12/15 08:53:23;;;;;;;0.90;0.90;;;;;;;4.38;89.63;100276.59;5032025;28;20083;-76
2023/12/15 08:55:49;;;;;;;0.80;0.80;;;;;;;4.31;88.89;100286.53;5036232;28;20048;-76
2023/12/15 08:58:15;;;;;;;0.80;0.80;;;;;;;4.30;89.80;100283.00;5031997;28;20245;-77
2023/12/15 09:00:40;;;;;;;0.77;0.77;;;;;;;4.36;89.46;100286.13;5036200;28;20087;-77
2023/12/15 09:03:07;;;;;;;0.80;0.80;;;;;;;4.40;89.76;100295.19;5037150;28;20029;-77
2023/12/15 09:05:33;;;;;;;0.90;0.90;;;;;;;4.43;89.76;100286.59;5030428;28;20045;-77
2023/12/15 09:07:59;;;;;;;0.90;0.90;;;;;;;4.49;89.68;100288.00;5031590;28;20491;-77
2023/12/15 09:10:25;;;;;;;0.80;0.80;;;;;;;4.57;88.61;100284.22;5033690;28;20064;-77
2023/12/15 09:12:52;;;;;;;0.80;0.80;;;;;;;4.49;88.88;100297.66;5032699;28;20025;-77
2023/12/15 09:15:18;;;;;;;0.80;0.80;;;;;;;4.54;88.33;100296.28;5032934;28;20038;-76
2023/12/15 09:17:44;;;;;;;0.80;0.80;;;;;;;4.70;88.29;100296.69;5037653;28;20401;-77
2023/12/15 09:20:11;;;;;;;0.90;0.90;;;;;;;4.73;88.90;100294.25;5033397;28;20029;-76
2023/12/15 09:22:37;;;;;;;;;;;;;;;4.65;89.32;100292.78;5034418;28;20286;-76
2023/12/15 09:25:04;;;;;;;0.80;0.80;;;;;;;4.63;88.44;100299.63;5032588;28;19921;-77
2023/12/15 09:27:29;;;;;;;0.80;0.80;;;;;;;4.61;88.74;100309.19;5031896;28;20042;-76
2023/12/15 09:29:55;;;;;;;0.90;0.90;;;;;;;4.75;88.90;100310.25;5033096;28;20033;-76
2023/12/15 09:32:20;;;;;;;0.80;0.80;;;;;;;4.86;87.54;100312.00;5030967;28;20048;-78
2023/12/15 09:34:46;;;;;;;0.80;0.80;;;;;;;4.95;87.47;100303.84;5047744;28;20148;-76
2023/12/15 09:37:12;;;;;;;0.80;0.80;;;;;;;5.10;86.48;100303.28;5033366;28;20057;-76
2023/12/15 09:39:38;;;;;;;0.80;0.80;;;;;;;5.07;86.83;100304.78;5031917;28;20541;-77
2023/12/15 09:42:04;;;;;;;0.90;0.90;;;;;;;5.21;86.08;100312.03;5028450;28;20033;-77
2023/12/15 09:44:30;;;;;;;0.80;0.80;;;;;;;5.26;85.36;100315.94;5034492;28;20040;-77
2023/12/15 09:46:57;;;;;;;0.90;0.90;;;;;;;5.51;84.98;100304.53;5034527;28;20818;-78
2023/12/15 09:49:25;;;;;;;0.80;0.80;;;;;;;5.59;84.85;100304.31;5031403;28;20045;-76
2023/12/15 09:51:50;;;;;;;0.90;0.90;;;;;;;5.53;84.63;100303.84;5029187;28;20146;-76
2023/12/15 09:54:20;;;;;;;0.80;0.80;;;;;;;5.61;84.52;100309.72;5028920;28;20498;-77
2023/12/15 09:56:46;;;;;;;0.90;0.90;;;;;;;5.81;83.00;100304.16;5018079;28;20064;-77
2023/12/15 09:59:14;;;;;;;0.90;0.90;;;;;;;5.67;83.59;100296.94;5031066;28;20033;-77
2023/12/15 10:01:40;;;;;;;0.80;0.80;;;;;;;5.51;84.37;100310.78;5028801;28;20044;-77
2023/12/15 10:04:06;;;;;;;0.80;0.80;;;;;;;5.42;85.20;100306.53;5033461;28;20045;-76
2023/12/15 10:06:37;;;;;;;0.80;0.80;;;;;;;5.31;84.96;100314.56;5030787;28;20037;-77
2023/12/15 10:09:15;;;;;;;0.90;0.90;;;;;;;5.35;85.03;100324.56;5033675;28;20573;-76
2023/12/15 10:11:43;;;;;;;0.90;0.90;;;;;;;5.49;84.69;100322.03;5033411;28;20064;-78
2023/12/15 10:14:09;;;;;;;0.75;0.75;;;;;;;5.54;83.95;100320.66;5035782;28;20041;-77
2023/12/15 10:16:37;;;;;;;0.90;0.90;;;;;;;5.49;83.69;100317.66;5036087;28;20407;-76
2023/12/15 10:19:06;;;;;;;;;;;;;;;5.57;83.60;100324.47;5018216;28;20086;-76
2023/12/15 10:21:32;;;;;;;0.90;0.90;;;;;;;5.67;82.82;100326.06;5035845;28;19970;-76
2023/12/15 10:23:59;;;;;;;1.00;1.00;;;;;;;6.23;81.18;100323.06;5037689;28;20636;-77
2023/12/15 10:26:27;;;;;;;0.80;0.80;;;;;;;5.85;81.87;100327.41;5033295;28;20127;-76
2023/12/15 10:28:54;;;;;;;0.80;0.80;;;;;;;6.12;81.46;100325.88;5030864;28;20056;-77
2023/12/15 10:31:20;;;;;;;0.90;0.90;;;;;;;6.28;80.79;100335.88;5031046;28;20060;-76
2023/12/15 10:33:45;;;;;;;0.90;0.90;;;;;;;6.46;80.36;100328.28;5030204;28;20068;-79
2023/12/15 10:36:13;;;;;;;0.93;0.93;;;;;;;6.50;79.23;100332.06;5046682;28;20057;-78
2023/12/15 10:38:39;;;;;;;0.80;0.80;;;;;;;6.64;79.15;100332.22;5031760;28;20037;-79
2023/12/15 10:41:07;;;;;;;0.80;0.80;;;;;;;6.50;79.74;100333.00;5033352;28;20033;-79
2023/12/15 10:43:34;;;;;;;0.80;0.80;;;;;;;6.67;79.64;100332.47;5029874;28;20083;-77
2023/12/15 10:46:01;;;;;;;0.90;0.90;;;;;;;6.90;78.42;100334.06;5033168;28;20021;-79
2023/12/15 10:48:27;;;;;;;0.80;0.80;;;;;;;6.92;77.72;100331.50;5032762;28;20124;-78
2023/12/15 10:50:54;;;;;;;0.80;0.80;;;;;;;6.62;79.03;100330.31;5029012;28;20121;-78
2023/12/15 10:53:19;;;;;;;0.90;0.90;;;;;;;6.73;78.70;100337.28;5029519;28;20383;-78
2023/12/15 10:55:46;;;;;;;0.80;0.80;;;;;;;6.55;79.36;100339.53;5029917;28;20480;-79
2023/12/15 10:58:15;;;;;;;0.90;0.90;;;;;;;7.01;77.86;100341.84;5033780;28;20025;-79
2023/12/15 11:00:40;;;;;;;0.90;0.90;;;;;;;8.13;72.30;100334.28;5034279;28;20340;-79
2023/12/15 11:03:11;;;;;;;0.80;0.80;;;;;;;8.10;71.81;100334.09;5037332;28;20045;-78
2023/12/15 11:05:40;;;;;;;0.80;0.80;;;;;;;7.97;73.07;100329.72;5030696;28;20083;-78
2023/12/15 11:08:06;;;;;;;0.70;0.70;;;;;;;7.98;73.60;100331.56;5030717;28;20518;-79
2023/12/15 11:10:32;;;;;;;0.70;0.70;;;;;;;8.06;72.44;100329.41;5030973;28;20047;-79
2023/12/15 11:12:57;;;;;;;0.80;0.80;;;;;;;7.33;75.04;100337.00;5029564;28;20041;-78
2023/12/15 11:15:24;;;;;;;0.80;0.80;;;;;;;7.58;74.97;100328.94;5030379;28;20046;-78
2023/12/15 11:17:55;;;;;;;0.80;0.80;;;;;;;7.75;73.54;100343.31;5032208;28;20113;-77
2023/12/15 11:20:20;;;;;;;0.80;0.80;;;;;;;7.45;74.91;100345.78;5031652;28;20103;-77
2023/12/15 11:22:52;;;;;;;0.80;0.80;;;;;;;7.95;71.93;100344.63;5026952;28;20045;-76
2023/12/15 11:25:19;;;;;;;0.77;0.77;;;;;;;7.62;73.01;100346.00;5036920;28;20033;-76
2023/12/15 11:28:00;;;;;;;;;;;;;;;7.85;73.55;100351.06;5029467;28;20045;-77
2023/12/15 11:30:30;;;;;;;0.80;0.80;;;;;;;7.96;72.59;100350.06;5030957;28;19989;-77
2023/12/15 11:32:56;;;;;;;0.80;0.80;;;;;;;7.43;73.82;100354.47;5031565;28;20539;-77